createdAt,value
2018-06-16T00:03:28.202Z,6.27
2018-06-16T00:08:22.334Z,5.60
2018-06-16T00:13:16.801Z,5.30
2018-06-16T00:18:11.248Z,5.50
2018-06-16T00:23:05.749Z,6.93
2018-06-16T00:28:00.152Z,8.17
2018-06-16T00:32:54.702Z,7.00
2018-06-16T00:37:49.143Z,6.00
2018-06-16T00:42:44.220Z,6.00
2018-06-16T00:47:38.958Z,5.40
2018-06-16T00:52:33.384Z,5.77
2018-06-16T00:57:45.052Z,5.23
2018-06-16T01:02:39.761Z,5.07
2018-06-16T01:07:34.168Z,6.03
2018-06-16T01:12:28.660Z,7.17
2018-06-16T01:17:23.093Z,6.57
2018-06-16T01:22:17.566Z,7.20
2018-06-16T01:27:12.012Z,7.37
2018-06-16T01:32:06.996Z,6.60
2018-06-16T01:37:01.473Z,6.33
2018-06-16T01:41:55.903Z,6.23
2018-06-16T01:46:50.436Z,6.47
2018-06-16T01:51:44.961Z,6.13
2018-06-16T01:56:39.417Z,6.40
2018-06-16T02:01:33.865Z,6.57
2018-06-16T02:06:28.290Z,6.80
2018-06-16T02:11:22.704Z,6.90
2018-06-16T02:16:17.138Z,6.93
2018-06-16T02:21:11.581Z,7.10
2018-06-16T02:26:06.225Z,6.10
2018-06-16T02:31:00.652Z,6.60
2018-06-16T02:35:56.621Z,6.53
2018-06-16T02:40:51.025Z,6.73
2018-06-16T02:45:45.216Z,6.50
2018-06-16T02:50:39.665Z,6.67
2018-06-16T02:55:34.115Z,6.97
2018-06-16T03:00:28.581Z,6.70
2018-06-16T03:05:23.024Z,7.07
2018-06-16T03:10:17.527Z,6.27
2018-06-16T03:15:11.976Z,6.77
2018-06-16T03:20:07.141Z,6.50
2018-06-16T03:25:01.613Z,6.10
2018-06-16T03:29:56.110Z,6.10
2018-06-16T03:34:50.557Z,6.20
2018-06-16T03:39:45.029Z,6.53
2018-06-16T03:44:39.480Z,6.93
2018-06-16T03:49:33.916Z,6.60
2018-06-16T03:54:28.341Z,6.30
2018-06-16T03:59:22.769Z,5.90
2018-06-16T04:04:17.473Z,5.77
2018-06-16T04:09:12.214Z,4.50
2018-06-16T04:14:06.820Z,5.30
2018-06-16T04:19:01.270Z,5.00
2018-06-16T04:23:55.783Z,4.80
2018-06-16T04:28:50.261Z,4.47
2018-06-16T04:33:44.725Z,4.62
2018-06-16T04:38:39.201Z,4.83
2018-06-16T04:43:33.677Z,4.97
2018-06-16T04:48:28.172Z,4.87
2018-06-16T04:53:22.611Z,5.40
2018-06-16T04:58:17.025Z,4.58
2018-06-16T05:03:11.479Z,4.70
2018-06-16T05:08:06.029Z,4.85
2018-06-16T05:13:00.526Z,5.20
2018-06-16T05:17:54.967Z,4.90
2018-06-16T05:22:49.408Z,5.08
2018-06-16T05:27:43.826Z,5.12
2018-06-16T05:32:38.396Z,5.30
2018-06-16T05:37:32.864Z,5.35
2018-06-16T05:42:27.380Z,5.90
2018-06-16T05:47:22.001Z,5.00
2018-06-16T05:52:17.186Z,5.47
2018-06-16T05:57:11.706Z,5.70
2018-06-16T06:02:06.204Z,5.92
2018-06-16T06:07:00.655Z,5.65
2018-06-16T06:11:55.116Z,5.70
2018-06-16T06:16:49.586Z,5.75
2018-06-16T06:21:43.992Z,6.20
2018-06-16T06:26:38.392Z,6.65
2018-06-16T06:31:32.512Z,5.90
2018-06-16T06:36:26.951Z,6.70
2018-06-16T06:41:21.426Z,6.20
2018-06-16T06:46:15.881Z,6.12
2018-06-16T06:51:10.444Z,6.83
2018-06-16T06:56:04.961Z,7.00
2018-06-16T07:00:59.461Z,6.45
2018-06-16T07:05:53.873Z,5.75
2018-06-16T07:10:48.374Z,5.83
2018-06-16T07:15:42.825Z,6.90
2018-06-16T07:20:37.361Z,5.80
2018-06-16T07:25:31.778Z,6.28
2018-06-16T07:30:26.817Z,6.67
2018-06-16T07:35:21.270Z,6.65
2018-06-16T07:40:15.681Z,6.30
2018-06-16T07:45:09.859Z,6.28
2018-06-16T07:50:04.416Z,5.37
2018-06-16T07:55:00.517Z,5.53
2018-06-16T07:59:54.633Z,6.58
2018-06-16T08:04:49.056Z,6.35
2018-06-16T08:14:44.047Z,5.83
2018-06-16T08:19:38.477Z,5.87
2018-06-16T08:24:32.933Z,6.20
2018-06-16T08:29:27.396Z,5.67
2018-06-16T08:34:21.836Z,5.15
2018-06-16T08:39:16.248Z,6.90
2018-06-16T08:44:10.779Z,6.40
2018-06-16T08:49:05.421Z,6.37
2018-06-16T08:53:59.884Z,4.35
2018-06-16T08:58:54.388Z,4.80
2018-06-16T09:03:49.804Z,5.20
2018-06-16T09:08:44.281Z,4.25
2018-06-16T09:13:38.930Z,4.22
2018-06-16T09:18:33.446Z,4.40
2018-06-16T09:23:28.045Z,3.85
2018-06-16T09:28:22.596Z,4.28
2018-06-16T09:33:17.233Z,4.47
2018-06-16T09:38:11.725Z,4.22
2018-06-16T09:43:06.237Z,4.67
2018-06-16T09:48:00.650Z,4.25
2018-06-16T09:52:55.206Z,4.20
2018-06-16T09:57:49.661Z,4.40
2018-06-16T10:02:44.602Z,3.62
2018-06-16T10:07:39.100Z,3.70
2018-06-16T10:12:33.532Z,3.87
2018-06-16T10:17:28.113Z,3.50
2018-06-16T10:22:22.609Z,3.42
2018-06-16T10:27:17.097Z,4.30
2018-06-16T10:32:11.608Z,2.98
2018-06-16T10:37:06.209Z,4.03
2018-06-16T10:42:00.632Z,3.37
2018-06-16T10:46:55.133Z,3.30
2018-06-16T10:51:49.569Z,3.00
2018-06-16T10:56:44.132Z,2.45
2018-06-16T11:02:41.149Z,3.10
2018-06-16T11:07:35.646Z,3.15
2018-06-16T11:12:30.130Z,2.80
2018-06-16T11:17:24.534Z,2.47
2018-06-16T11:22:19.017Z,2.77
2018-06-16T11:27:13.521Z,2.75
2018-06-16T11:32:08.001Z,2.60
2018-06-16T11:37:02.132Z,2.65
2018-06-16T11:41:56.590Z,2.80
2018-06-16T11:46:50.740Z,3.12
2018-06-16T11:51:45.220Z,2.58
2018-06-16T11:56:39.697Z,3.30
2018-06-16T12:01:34.250Z,3.20
2018-06-16T12:06:28.693Z,2.92
2018-06-16T12:11:23.529Z,3.45
2018-06-16T12:16:17.932Z,2.72
2018-06-16T12:21:12.372Z,2.75
2018-06-16T12:26:06.812Z,3.30
2018-06-16T12:31:01.232Z,3.05
2018-06-16T12:35:55.650Z,3.22
2018-06-16T12:40:50.188Z,2.95
2018-06-16T12:45:44.672Z,2.75
2018-06-16T12:50:39.192Z,3.00
2018-06-16T12:55:33.601Z,2.77
2018-06-16T13:00:28.075Z,3.67
2018-06-16T13:05:22.564Z,3.72
2018-06-16T13:10:17.125Z,3.17
2018-06-16T13:15:11.257Z,3.30
2018-06-16T13:20:05.726Z,3.05
2018-06-16T13:25:00.133Z,3.00
2018-06-16T13:29:54.741Z,2.80
2018-06-16T13:34:49.140Z,3.12
2018-06-16T13:39:43.711Z,2.70
2018-06-16T13:44:38.174Z,2.72
2018-06-16T13:49:32.768Z,3.30
2018-06-16T13:54:27.184Z,2.70
2018-06-16T13:59:21.624Z,3.17
2018-06-16T14:04:16.057Z,3.17
2018-06-16T14:09:11.249Z,3.40
2018-06-16T14:14:05.792Z,2.67
2018-06-16T14:19:00.301Z,3.00
2018-06-16T14:23:55.540Z,3.27
2018-06-16T14:28:50.098Z,2.65
2018-06-16T14:33:44.724Z,3.00
2018-06-16T14:38:39.164Z,3.00
2018-06-16T14:43:33.722Z,2.90
2018-06-16T14:48:27.882Z,2.20
2018-06-16T14:53:22.331Z,2.58
2018-06-16T14:58:16.776Z,2.83
2018-06-16T15:03:11.287Z,2.72
2018-06-16T15:08:05.804Z,2.77
2018-06-16T15:13:00.214Z,2.85
2018-06-16T15:17:54.728Z,2.35
2018-06-16T15:22:49.148Z,2.37
2018-06-16T15:27:43.620Z,2.50
2018-06-16T15:32:38.074Z,2.52
2018-06-16T15:37:32.480Z,2.60
2018-06-16T15:42:26.945Z,2.92
2018-06-16T15:47:21.373Z,2.50
2018-06-16T15:52:15.788Z,2.50
2018-06-16T15:57:09.971Z,2.58
2018-06-16T16:02:04.354Z,2.42
2018-06-16T16:06:58.902Z,2.60
2018-06-16T16:11:53.475Z,2.70
2018-06-16T16:16:47.925Z,2.80
2018-06-16T16:21:42.429Z,2.72
2018-06-16T16:26:36.902Z,2.80
2018-06-16T16:31:31.381Z,2.90
2018-06-16T16:36:25.904Z,2.50
2018-06-16T16:41:20.339Z,2.50
2018-06-16T16:46:14.919Z,2.72
2018-06-16T16:51:09.375Z,3.00
2018-06-16T16:56:03.852Z,2.70
2018-06-16T17:00:58.005Z,2.98
2018-06-16T17:05:52.453Z,2.72
2018-06-16T17:10:46.972Z,2.60
2018-06-16T17:15:41.436Z,2.45
2018-06-16T17:20:35.897Z,2.80
2018-06-16T17:25:30.288Z,2.77
2018-06-16T17:30:24.709Z,2.72
2018-06-16T17:35:19.095Z,2.60
2018-06-16T17:40:13.549Z,2.87
2018-06-16T17:45:08.041Z,2.67
2018-06-16T17:50:02.529Z,2.58
2018-06-16T17:54:56.978Z,2.70
2018-06-16T17:59:51.427Z,2.72
2018-06-16T18:04:45.862Z,2.77
2018-06-16T18:09:40.274Z,2.98
2018-06-16T18:14:34.794Z,3.10
2018-06-16T18:19:29.227Z,2.98
2018-06-16T18:24:23.664Z,3.10
2018-06-16T18:29:18.081Z,3.10
2018-06-16T18:34:12.528Z,2.65
2018-06-16T18:39:10.180Z,2.80
2018-06-16T18:44:04.874Z,3.00
2018-06-16T18:48:59.360Z,3.12
2018-06-16T18:53:53.985Z,2.80
2018-06-16T18:58:48.497Z,3.37
2018-06-16T19:03:43.752Z,3.50
2018-06-16T19:08:38.214Z,3.67
2018-06-16T19:13:32.671Z,4.15
2018-06-16T19:18:27.096Z,4.65
2018-06-16T19:23:21.534Z,5.90
2018-06-16T19:28:16.043Z,8.80
2018-06-16T19:33:10.534Z,12.20
2018-06-16T19:38:05.056Z,9.15
2018-06-16T19:42:59.504Z,11.55
2018-06-16T19:47:53.979Z,10.53
2018-06-16T19:52:48.467Z,5.28
2018-06-16T19:57:42.940Z,5.10
2018-06-16T20:02:37.453Z,5.20
2018-06-16T20:07:31.957Z,5.08
2018-06-16T20:12:26.601Z,5.37
2018-06-16T20:17:21.080Z,6.00
2018-06-16T20:22:15.526Z,9.90
2018-06-16T20:27:09.960Z,9.57
2018-06-16T20:32:04.485Z,9.57
2018-06-16T20:36:58.929Z,8.47
2018-06-16T20:41:53.553Z,8.78
2018-06-16T20:46:48.078Z,10.63
2018-06-16T20:51:42.505Z,10.60
2018-06-16T20:56:36.987Z,17.53
2018-06-16T21:01:31.469Z,14.03
2018-06-16T21:06:26.013Z,8.85
2018-06-16T21:11:20.459Z,5.37
2018-06-16T21:16:14.896Z,5.77
2018-06-16T21:21:09.368Z,4.87
2018-06-16T21:26:03.816Z,5.10
2018-06-16T21:30:58.967Z,4.93
2018-06-16T21:35:53.445Z,5.33
2018-06-16T21:40:47.776Z,5.67
2018-06-16T21:45:42.209Z,5.03
2018-06-16T21:50:36.645Z,5.27
2018-06-16T21:55:31.080Z,6.23
2018-06-16T22:00:29.582Z,5.40
2018-06-16T22:05:24.000Z,7.40
2018-06-16T22:10:18.559Z,10.63
2018-06-16T22:15:13.094Z,9.20
2018-06-16T22:20:07.584Z,8.17
2018-06-16T22:25:01.993Z,7.47
2018-06-16T22:29:56.472Z,6.80
2018-06-16T22:34:51.273Z,7.50
2018-06-16T22:39:45.729Z,7.40
2018-06-16T22:44:40.210Z,9.50
2018-06-16T22:49:34.613Z,7.83
2018-06-16T22:54:29.050Z,7.80
2018-06-16T22:59:23.521Z,7.47
2018-06-16T23:04:17.961Z,7.37
2018-06-16T23:09:12.989Z,7.07
2018-06-16T23:14:07.595Z,6.57
2018-06-16T23:19:02.005Z,6.50
2018-06-16T23:24:02.065Z,6.80
2018-06-16T23:28:56.486Z,6.27
2018-06-16T23:33:50.940Z,5.80
2018-06-16T23:38:45.361Z,6.10
2018-06-16T23:43:39.820Z,7.70
2018-06-16T23:48:34.301Z,8.70
2018-06-16T23:53:28.761Z,7.93
2018-06-16T23:58:23.197Z,8.23
